sensor_id;sensor_type;location;lat;lon;timestamp;P1;durP1;ratioP1;P2;durP2;ratioP2
74543;SDS011;63016;55.030;38.710;2023-04-29T00:01:05;6.90;;;4.78;;
74543;SDS011;63016;55.030;38.710;2023-04-29T00:03:31;6.72;;;5.15;;
74543;SDS011;63016;55.030;38.710;2023-04-29T00:05:57;5.22;;;4.07;;
74543;SDS011;63016;55.030;38.710;2023-04-29T00:08:23;4.97;;;4.13;;
74543;SDS011;63016;55.030;38.710;2023-04-29T00:10:49;4.13;;;2.85;;
74543;SDS011;63016;55.030;38.710;2023-04-29T00:13:15;3.78;;;3.08;;
74543;SDS011;63016;55.030;38.710;2023-04-29T00:15:41;5.90;;;2.60;;
74543;SDS011;63016;55.030;38.710;2023-04-29T00:18:07;2.75;;;2.40;;
74543;SDS011;63016;55.030;38.710;2023-04-29T00:20:35;3.25;;;2.50;;
74543;SDS011;63016;55.030;38.710;2023-04-29T00:23:04;3.58;;;2.47;;
74543;SDS011;63016;55.030;38.710;2023-04-29T00:25:30;2.55;;;2.30;;
74543;SDS011;63016;55.030;38.710;2023-04-29T00:27:59;3.38;;;2.45;;
74543;SDS011;63016;55.030;38.710;2023-04-29T00:30:45;2.60;;;2.15;;
74543;SDS011;63016;55.030;38.710;2023-04-29T00:33:11;2.33;;;2.10;;
74543;SDS011;63016;55.030;38.710;2023-04-29T00:35:37;2.30;;;1.92;;
74543;SDS011;63016;55.030;38.710;2023-04-29T00:38:02;2.72;;;1.67;;
74543;SDS011;63016;55.030;38.710;2023-04-29T00:40:28;2.28;;;1.80;;
74543;SDS011;63016;55.030;38.710;2023-04-29T00:42:53;2.47;;;1.90;;
74543;SDS011;63016;55.030;38.710;2023-04-29T00:45:19;2.05;;;1.80;;
74543;SDS011;63016;55.030;38.710;2023-04-29T00:47:44;2.53;;;1.88;;
74543;SDS011;63016;55.030;38.710;2023-04-29T00:50:10;2.17;;;1.70;;
74543;SDS011;63016;55.030;38.710;2023-04-29T00:52:35;1.40;;;1.30;;
74543;SDS011;63016;55.030;38.710;2023-04-29T00:55:02;1.15;;;1.05;;
74543;SDS011;63016;55.030;38.710;2023-04-29T00:57:30;1.20;;;1.10;;
74543;SDS011;63016;55.030;38.710;2023-04-29T00:59:56;1.30;;;0.90;;
74543;SDS011;63016;55.030;38.710;2023-04-29T01:02:22;1.13;;;0.80;;
74543;SDS011;63016;55.030;38.710;2023-04-29T01:04:49;1.27;;;1.02;;
74543;SDS011;63016;55.030;38.710;2023-04-29T01:07:16;1.10;;;1.00;;
74543;SDS011;63016;55.030;38.710;2023-04-29T01:09:49;0.85;;;0.80;;
74543;SDS011;63016;55.030;38.710;2023-04-29T01:15:04;0.70;;;0.70;;
74543;SDS011;63016;55.030;38.710;2023-04-29T01:17:40;0.80;;;0.80;;
74543;SDS011;63016;55.030;38.710;2023-04-29T01:20:08;1.10;;;0.90;;
74543;SDS011;63016;55.030;38.710;2023-04-29T01:22:35;1.23;;;0.90;;
74543;SDS011;63016;55.030;38.710;2023-04-29T01:25:01;3.53;;;1.02;;
74543;SDS011;63016;55.030;38.710;2023-04-29T01:27:28;2.00;;;0.80;;
74543;SDS011;63016;55.030;38.710;2023-04-29T01:29:59;1.27;;;0.85;;
74543;SDS011;63016;55.030;38.710;2023-04-29T01:41:29;1.05;;;0.95;;
74543;SDS011;63016;55.030;38.710;2023-04-29T01:44:00;1.52;;;1.02;;
74543;SDS011;63016;55.030;38.710;2023-04-29T01:46:28;1.42;;;1.10;;
74543;SDS011;63016;55.030;38.710;2023-04-29T01:48:55;1.10;;;0.85;;
74543;SDS011;63016;55.030;38.710;2023-04-29T01:51:20;2.58;;;0.88;;
74543;SDS011;63016;55.030;38.710;2023-04-29T01:53:46;3.38;;;0.90;;
74543;SDS011;63016;55.030;38.710;2023-04-29T01:56:11;1.52;;;0.75;;
74543;SDS011;63016;55.030;38.710;2023-04-29T01:58:37;1.08;;;0.80;;
74543;SDS011;63016;55.030;38.710;2023-04-29T02:01:02;1.10;;;0.80;;
74543;SDS011;63016;55.030;38.710;2023-04-29T02:03:28;1.02;;;0.70;;
74543;SDS011;63016;55.030;38.710;2023-04-29T02:05:53;1.67;;;0.60;;
74543;SDS011;63016;55.030;38.710;2023-04-29T02:08:19;1.05;;;0.70;;
74543;SDS011;63016;55.030;38.710;2023-04-29T02:10:54;0.60;;;0.60;;
74543;SDS011;63016;55.030;38.710;2023-04-29T02:13:20;1.02;;;0.60;;
74543;SDS011;63016;55.030;38.710;2023-04-29T02:15:45;0.80;;;0.60;;
74543;SDS011;63016;55.030;38.710;2023-04-29T02:18:11;0.65;;;0.60;;
74543;SDS011;63016;55.030;38.710;2023-04-29T02:20:36;0.50;;;0.50;;
74543;SDS011;63016;55.030;38.710;2023-04-29T02:23:02;0.85;;;0.50;;
74543;SDS011;63016;55.030;38.710;2023-04-29T02:25:27;1.55;;;0.50;;
74543;SDS011;63016;55.030;38.710;2023-04-29T02:27:53;0.60;;;0.50;;
74543;SDS011;63016;55.030;38.710;2023-04-29T02:30:18;0.30;;;0.30;;
74543;SDS011;63016;55.030;38.710;2023-04-29T02:32:43;0.45;;;0.45;;
74543;SDS011;63016;55.030;38.710;2023-04-29T02:35:09;0.47;;;0.40;;
74543;SDS011;63016;55.030;38.710;2023-04-29T02:37:34;0.57;;;0.30;;
74543;SDS011;63016;55.030;38.710;2023-04-29T02:40:00;1.30;;;0.40;;
74543;SDS011;63016;55.030;38.710;2023-04-29T02:42:27;0.65;;;0.43;;
74543;SDS011;63016;55.030;38.710;2023-04-29T02:44:53;0.55;;;0.30;;
74543;SDS011;63016;55.030;38.710;2023-04-29T02:47:18;1.25;;;0.40;;
74543;SDS011;63016;55.030;38.710;2023-04-29T02:49:44;0.38;;;0.30;;
74543;SDS011;63016;55.030;38.710;2023-04-29T02:52:09;0.70;;;0.40;;
74543;SDS011;63016;55.030;38.710;2023-04-29T02:54:35;1.17;;;0.30;;
74543;SDS011;63016;55.030;38.710;2023-04-29T02:57:00;0.98;;;0.30;;
74543;SDS011;63016;55.030;38.710;2023-04-29T02:59:26;1.40;;;0.40;;
74543;SDS011;63016;55.030;38.710;2023-04-29T03:01:52;0.47;;;0.47;;
74543;SDS011;63016;55.030;38.710;2023-04-29T03:04:18;0.55;;;0.43;;
74543;SDS011;63016;55.030;38.710;2023-04-29T03:06:44;0.98;;;0.40;;
74543;SDS011;63016;55.030;38.710;2023-04-29T03:09:10;1.67;;;0.60;;
74543;SDS011;63016;55.030;38.710;2023-04-29T03:11:37;0.73;;;0.50;;
74543;SDS011;63016;55.030;38.710;2023-04-29T03:14:03;0.40;;;0.40;;
74543;SDS011;63016;55.030;38.710;2023-04-29T03:16:28;0.50;;;0.50;;
74543;SDS011;63016;55.030;38.710;2023-04-29T03:18:55;0.60;;;0.60;;
74543;SDS011;63016;55.030;38.710;2023-04-29T03:21:21;0.40;;;0.40;;
74543;SDS011;63016;55.030;38.710;2023-04-29T03:23:49;0.55;;;0.50;;
74543;SDS011;63016;55.030;38.710;2023-04-29T03:26:14;0.50;;;0.50;;
74543;SDS011;63016;55.030;38.710;2023-04-29T03:28:40;0.43;;;0.32;;
74543;SDS011;63016;55.030;38.710;2023-04-29T03:31:05;1.73;;;0.70;;
74543;SDS011;63016;55.030;38.710;2023-04-29T03:33:31;1.13;;;0.60;;
74543;SDS011;63016;55.030;38.710;2023-04-29T03:35:56;0.93;;;0.63;;
74543;SDS011;63016;55.030;38.710;2023-04-29T03:38:22;0.70;;;0.60;;
74543;SDS011;63016;55.030;38.710;2023-04-29T03:40:48;0.80;;;0.60;;
74543;SDS011;63016;55.030;38.710;2023-04-29T03:43:14;1.02;;;0.80;;
74543;SDS011;63016;55.030;38.710;2023-04-29T03:45:39;1.80;;;0.70;;
74543;SDS011;63016;55.030;38.710;2023-04-29T03:48:05;0.70;;;0.57;;
74543;SDS011;63016;55.030;38.710;2023-04-29T03:50:31;0.70;;;0.60;;
74543;SDS011;63016;55.030;38.710;2023-04-29T03:52:57;0.68;;;0.60;;
74543;SDS011;63016;55.030;38.710;2023-04-29T03:55:22;0.73;;;0.60;;
74543;SDS011;63016;55.030;38.710;2023-04-29T03:57:48;1.20;;;0.80;;
74543;SDS011;63016;55.030;38.710;2023-04-29T04:00:13;0.63;;;0.63;;
74543;SDS011;63016;55.030;38.710;2023-04-29T04:02:39;1.25;;;0.70;;
74543;SDS011;63016;55.030;38.710;2023-04-29T04:05:05;1.23;;;0.60;;
74543;SDS011;63016;55.030;38.710;2023-04-29T04:07:30;3.15;;;0.65;;
74543;SDS011;63016;55.030;38.710;2023-04-29T04:09:56;0.85;;;0.60;;
74543;SDS011;63016;55.030;38.710;2023-04-29T04:12:21;1.77;;;0.60;;
74543;SDS011;63016;55.030;38.710;2023-04-29T04:14:47;0.70;;;0.55;;
74543;SDS011;63016;55.030;38.710;2023-04-29T04:17:12;1.05;;;0.50;;
74543;SDS011;63016;55.030;38.710;2023-04-29T04:19:38;0.90;;;0.50;;
74543;SDS011;63016;55.030;38.710;2023-04-29T04:22:03;0.90;;;0.60;;
74543;SDS011;63016;55.030;38.710;2023-04-29T04:24:29;2.15;;;0.70;;
74543;SDS011;63016;55.030;38.710;2023-04-29T04:26:54;1.52;;;0.50;;
74543;SDS011;63016;55.030;38.710;2023-04-29T04:29:20;1.33;;;0.57;;
74543;SDS011;63016;55.030;38.710;2023-04-29T04:31:45;0.60;;;0.43;;
74543;SDS011;63016;55.030;38.710;2023-04-29T04:34:11;0.95;;;0.50;;
74543;SDS011;63016;55.030;38.710;2023-04-29T04:36:36;0.50;;;0.50;;
74543;SDS011;63016;55.030;38.710;2023-04-29T04:39:02;1.65;;;0.50;;
74543;SDS011;63016;55.030;38.710;2023-04-29T04:41:28;0.52;;;0.40;;
74543;SDS011;63016;55.030;38.710;2023-04-29T04:43:56;1.05;;;0.50;;
74543;SDS011;63016;55.030;38.710;2023-04-29T04:46:21;1.02;;;0.50;;
74543;SDS011;63016;55.030;38.710;2023-04-29T04:48:47;1.35;;;0.50;;
74543;SDS011;63016;55.030;38.710;2023-04-29T04:51:13;0.40;;;0.40;;
74543;SDS011;63016;55.030;38.710;2023-04-29T04:53:39;1.27;;;0.40;;
74543;SDS011;63016;55.030;38.710;2023-04-29T04:56:05;2.78;;;0.40;;
74543;SDS011;63016;55.030;38.710;2023-04-29T04:58:31;0.40;;;0.30;;
74543;SDS011;63016;55.030;38.710;2023-04-29T05:00:58;0.50;;;0.40;;
74543;SDS011;63016;55.030;38.710;2023-04-29T05:03:23;0.43;;;0.35;;
74543;SDS011;63016;55.030;38.710;2023-04-29T05:05:55;0.80;;;0.50;;
74543;SDS011;63016;55.030;38.710;2023-04-29T05:08:22;0.40;;;0.40;;
74543;SDS011;63016;55.030;38.710;2023-04-29T05:10:48;0.35;;;0.35;;
74543;SDS011;63016;55.030;38.710;2023-04-29T05:13:14;1.13;;;0.43;;
74543;SDS011;63016;55.030;38.710;2023-04-29T05:15:39;0.52;;;0.43;;
74543;SDS011;63016;55.030;38.710;2023-04-29T05:18:05;0.52;;;0.40;;
74543;SDS011;63016;55.030;38.710;2023-04-29T05:20:30;0.88;;;0.50;;
74543;SDS011;63016;55.030;38.710;2023-04-29T05:22:56;0.45;;;0.40;;
74543;SDS011;63016;55.030;38.710;2023-04-29T05:25:21;0.30;;;0.30;;
74543;SDS011;63016;55.030;38.710;2023-04-29T05:27:47;0.47;;;0.32;;
74543;SDS011;63016;55.030;38.710;2023-04-29T05:30:12;0.80;;;0.40;;
74543;SDS011;63016;55.030;38.710;2023-04-29T05:32:38;1.25;;;0.50;;
74543;SDS011;63016;55.030;38.710;2023-04-29T05:35:03;1.05;;;0.35;;
74543;SDS011;63016;55.030;38.710;2023-04-29T05:37:29;0.40;;;0.38;;
74543;SDS011;63016;55.030;38.710;2023-04-29T05:39:56;0.50;;;0.30;;
74543;SDS011;63016;55.030;38.710;2023-04-29T05:42:22;0.30;;;0.30;;
74543;SDS011;63016;55.030;38.710;2023-04-29T05:44:48;1.10;;;0.40;;
74543;SDS011;63016;55.030;38.710;2023-04-29T05:47:13;0.47;;;0.40;;
74543;SDS011;63016;55.030;38.710;2023-04-29T05:49:39;0.50;;;0.35;;
74543;SDS011;63016;55.030;38.710;2023-04-29T05:52:04;0.40;;;0.40;;
74543;SDS011;63016;55.030;38.710;2023-04-29T05:54:33;0.47;;;0.40;;
74543;SDS011;63016;55.030;38.710;2023-04-29T05:56:59;0.70;;;0.50;;
74543;SDS011;63016;55.030;38.710;2023-04-29T05:59:28;1.13;;;0.30;;
74543;SDS011;63016;55.030;38.710;2023-04-29T06:01:58;0.47;;;0.30;;
74543;SDS011;63016;55.030;38.710;2023-04-29T06:04:24;1.75;;;0.20;;
74543;SDS011;63016;55.030;38.710;2023-04-29T06:06:50;0.45;;;0.30;;
74543;SDS011;63016;55.030;38.710;2023-04-29T06:09:20;0.30;;;0.30;;
74543;SDS011;63016;55.030;38.710;2023-04-29T06:11:46;1.58;;;0.50;;
74543;SDS011;63016;55.030;38.710;2023-04-29T06:14:12;0.65;;;0.40;;
74543;SDS011;63016;55.030;38.710;2023-04-29T06:16:38;0.30;;;0.30;;
74543;SDS011;63016;55.030;38.710;2023-04-29T06:19:04;0.52;;;0.40;;
74543;SDS011;63016;55.030;38.710;2023-04-29T06:21:29;0.40;;;0.30;;
74543;SDS011;63016;55.030;38.710;2023-04-29T06:24:13;0.22;;;0.20;;
74543;SDS011;63016;55.030;38.710;2023-04-29T06:26:39;0.38;;;0.30;;
74543;SDS011;63016;55.030;38.710;2023-04-29T06:29:04;0.90;;;0.30;;
74543;SDS011;63016;55.030;38.710;2023-04-29T06:31:30;0.47;;;0.30;;
74543;SDS011;63016;55.030;38.710;2023-04-29T06:33:55;0.38;;;0.38;;
74543;SDS011;63016;55.030;38.710;2023-04-29T06:36:21;0.73;;;0.50;;
74543;SDS011;63016;55.030;38.710;2023-04-29T06:38:46;0.50;;;0.32;;
74543;SDS011;63016;55.030;38.710;2023-04-29T06:41:12;0.80;;;0.50;;
74543;SDS011;63016;55.030;38.710;2023-04-29T06:43:37;0.60;;;0.60;;
74543;SDS011;63016;55.030;38.710;2023-04-29T06:46:03;0.40;;;0.40;;
74543;SDS011;63016;55.030;38.710;2023-04-29T06:48:29;0.50;;;0.47;;
74543;SDS011;63016;55.030;38.710;2023-04-29T06:53:40;1.55;;;0.70;;
74543;SDS011;63016;55.030;38.710;2023-04-29T06:56:05;1.35;;;0.60;;
74543;SDS011;63016;55.030;38.710;2023-04-29T06:58:31;0.55;;;0.50;;
74543;SDS011;63016;55.030;38.710;2023-04-29T07:00:57;1.08;;;0.90;;
74543;SDS011;63016;55.030;38.710;2023-04-29T07:03:22;3.97;;;0.82;;
74543;SDS011;63016;55.030;38.710;2023-04-29T07:06:06;1.88;;;0.70;;
74543;SDS011;63016;55.030;38.710;2023-04-29T07:08:32;0.80;;;0.68;;
74543;SDS011;63016;55.030;38.710;2023-04-29T07:10:57;9.82;;;0.90;;
74543;SDS011;63016;55.030;38.710;2023-04-29T07:13:23;1.38;;;0.50;;
74543;SDS011;63016;55.030;38.710;2023-04-29T07:15:50;0.52;;;0.50;;
74543;SDS011;63016;55.030;38.710;2023-04-29T07:18:15;0.65;;;0.60;;
74543;SDS011;63016;55.030;38.710;2023-04-29T07:20:41;0.60;;;0.50;;
74543;SDS011;63016;55.030;38.710;2023-04-29T07:23:07;0.85;;;0.52;;
74543;SDS011;63016;55.030;38.710;2023-04-29T07:25:33;1.38;;;0.55;;
74543;SDS011;63016;55.030;38.710;2023-04-29T07:27:59;0.82;;;0.60;;
74543;SDS011;63016;55.030;38.710;2023-04-29T07:30:25;0.40;;;0.40;;
74543;SDS011;63016;55.030;38.710;2023-04-29T07:32:50;0.40;;;0.40;;
74543;SDS011;63016;55.030;38.710;2023-04-29T07:35:16;0.93;;;0.50;;
74543;SDS011;63016;55.030;38.710;2023-04-29T07:37:42;0.60;;;0.35;;
74543;SDS011;63016;55.030;38.710;2023-04-29T07:40:08;0.93;;;0.40;;
74543;SDS011;63016;55.030;38.710;2023-04-29T07:42:34;1.98;;;1.30;;
74543;SDS011;63016;55.030;38.710;2023-04-29T07:44:59;5.25;;;2.20;;
74543;SDS011;63016;55.030;38.710;2023-04-29T07:47:25;4.38;;;1.70;;
74543;SDS011;63016;55.030;38.710;2023-04-29T07:49:51;5.30;;;1.90;;
74543;SDS011;63016;55.030;38.710;2023-04-29T07:52:17;6.75;;;2.08;;
74543;SDS011;63016;55.030;38.710;2023-04-29T07:54:42;4.00;;;1.95;;
74543;SDS011;63016;55.030;38.710;2023-04-29T07:57:08;2.92;;;1.35;;
74543;SDS011;63016;55.030;38.710;2023-04-29T07:59:33;1.40;;;1.05;;
74543;SDS011;63016;55.030;38.710;2023-04-29T08:01:59;1.67;;;0.80;;
74543;SDS011;63016;55.030;38.710;2023-04-29T08:04:24;20.77;;;2.38;;
74543;SDS011;63016;55.030;38.710;2023-04-29T08:06:50;7.45;;;0.70;;
74543;SDS011;63016;55.030;38.710;2023-04-29T08:09:16;0.95;;;0.70;;
74543;SDS011;63016;55.030;38.710;2023-04-29T08:11:41;0.90;;;0.80;;
74543;SDS011;63016;55.030;38.710;2023-04-29T08:14:08;1.92;;;0.68;;
74543;SDS011;63016;55.030;38.710;2023-04-29T08:16:34;1.13;;;0.80;;
74543;SDS011;63016;55.030;38.710;2023-04-29T08:18:59;1.60;;;0.95;;
74543;SDS011;63016;55.030;38.710;2023-04-29T08:21:25;2.47;;;1.30;;
74543;SDS011;63016;55.030;38.710;2023-04-29T08:23:51;1.67;;;1.02;;
74543;SDS011;63016;55.030;38.710;2023-04-29T08:26:17;4.72;;;2.10;;
74543;SDS011;63016;55.030;38.710;2023-04-29T08:28:43;4.72;;;1.98;;
74543;SDS011;63016;55.030;38.710;2023-04-29T08:31:15;1.65;;;0.98;;
74543;SDS011;63016;55.030;38.710;2023-04-29T08:33:41;2.95;;;1.00;;
74543;SDS011;63016;55.030;38.710;2023-04-29T08:36:07;1.50;;;1.08;;
74543;SDS011;63016;55.030;38.710;2023-04-29T08:38:32;1.38;;;0.77;;
74543;SDS011;63016;55.030;38.710;2023-04-29T08:40:58;1.27;;;1.00;;
74543;SDS011;63016;55.030;38.710;2023-04-29T08:43:25;1.10;;;1.00;;
74543;SDS011;63016;55.030;38.710;2023-04-29T08:45:51;4.45;;;1.30;;
74543;SDS011;63016;55.030;38.710;2023-04-29T08:48:17;3.42;;;1.23;;
74543;SDS011;63016;55.030;38.710;2023-04-29T08:50:43;9.73;;;2.15;;
74543;SDS011;63016;55.030;38.710;2023-04-29T08:53:10;4.90;;;2.08;;
74543;SDS011;63016;55.030;38.710;2023-04-29T08:58:07;2.00;;;1.40;;
74543;SDS011;63016;55.030;38.710;2023-04-29T09:00:34;2.53;;;1.40;;
74543;SDS011;63016;55.030;38.710;2023-04-29T09:03:03;2.70;;;1.20;;
74543;SDS011;63016;55.030;38.710;2023-04-29T09:05:37;4.57;;;1.40;;
74543;SDS011;63016;55.030;38.710;2023-04-29T09:08:06;2.35;;;1.50;;
74543;SDS011;63016;55.030;38.710;2023-04-29T09:10:32;3.38;;;1.35;;
74543;SDS011;63016;55.030;38.710;2023-04-29T09:13:01;2.33;;;1.10;;
74543;SDS011;63016;55.030;38.710;2023-04-29T09:15:26;1.95;;;1.35;;
74543;SDS011;63016;55.030;38.710;2023-04-29T09:17:52;3.10;;;1.20;;
74543;SDS011;63016;55.030;38.710;2023-04-29T09:22:47;4.28;;;1.20;;
74543;SDS011;63016;55.030;38.710;2023-04-29T09:25:31;1.70;;;1.00;;
74543;SDS011;63016;55.030;38.710;2023-04-29T09:27:57;2.60;;;1.08;;
74543;SDS011;63016;55.030;38.710;2023-04-29T09:30:22;2.42;;;1.23;;
74543;SDS011;63016;55.030;38.710;2023-04-29T09:33:02;1.60;;;1.08;;
74543;SDS011;63016;55.030;38.710;2023-04-29T09:35:30;3.35;;;1.40;;
74543;SDS011;63016;55.030;38.710;2023-04-29T09:38:11;4.68;;;1.77;;
74543;SDS011;63016;55.030;38.710;2023-04-29T09:40:39;5.15;;;2.22;;
74543;SDS011;63016;55.030;38.710;2023-04-29T09:45:52;3.67;;;1.65;;
74543;SDS011;63016;55.030;38.710;2023-04-29T09:48:17;5.55;;;2.05;;
74543;SDS011;63016;55.030;38.710;2023-04-29T09:50:43;9.77;;;2.05;;
74543;SDS011;63016;55.030;38.710;2023-04-29T09:53:29;9.00;;;1.23;;
74543;SDS011;63016;55.030;38.710;2023-04-29T09:58:30;23.27;;;2.60;;
74543;SDS011;63016;55.030;38.710;2023-04-29T10:01:02;2.08;;;1.30;;
74543;SDS011;63016;55.030;38.710;2023-04-29T10:03:32;3.60;;;1.50;;
74543;SDS011;63016;55.030;38.710;2023-04-29T10:06:00;3.30;;;1.73;;
74543;SDS011;63016;55.030;38.710;2023-04-29T10:11:49;2.22;;;1.83;;
74543;SDS011;63016;55.030;38.710;2023-04-29T10:14:17;2.35;;;1.70;;
74543;SDS011;63016;55.030;38.710;2023-04-29T10:22:35;4.90;;;1.77;;
74543;SDS011;63016;55.030;38.710;2023-04-29T10:25:28;3.75;;;1.73;;
74543;SDS011;63016;55.030;38.710;2023-04-29T10:27:54;4.47;;;1.70;;
74543;SDS011;63016;55.030;38.710;2023-04-29T10:30:20;3.60;;;1.80;;
74543;SDS011;63016;55.030;38.710;2023-04-29T10:32:47;3.60;;;1.73;;
74543;SDS011;63016;55.030;38.710;2023-04-29T10:35:14;2.50;;;1.85;;
74543;SDS011;63016;55.030;38.710;2023-04-29T10:37:43;3.10;;;1.88;;
74543;SDS011;63016;55.030;38.710;2023-04-29T10:40:11;4.45;;;2.10;;
74543;SDS011;63016;55.030;38.710;2023-04-29T10:42:47;2.92;;;2.03;;
74543;SDS011;63016;55.030;38.710;2023-04-29T10:45:17;6.43;;;2.10;;
74543;SDS011;63016;55.030;38.710;2023-04-29T10:53:02;8.50;;;2.22;;
74543;SDS011;63016;55.030;38.710;2023-04-29T10:55:28;5.10;;;2.83;;
74543;SDS011;63016;55.030;38.710;2023-04-29T10:57:54;3.50;;;2.30;;
74543;SDS011;63016;55.030;38.710;2023-04-29T11:00:27;3.83;;;2.35;;
74543;SDS011;63016;55.030;38.710;2023-04-29T11:02:54;3.13;;;1.98;;
74543;SDS011;63016;55.030;38.710;2023-04-29T11:05:29;5.10;;;2.38;;
74543;SDS011;63016;55.030;38.710;2023-04-29T11:08:09;4.25;;;2.53;;
74543;SDS011;63016;55.030;38.710;2023-04-29T11:10:51;3.25;;;2.55;;
74543;SDS011;63016;55.030;38.710;2023-04-29T11:13:24;3.30;;;2.60;;
74543;SDS011;63016;55.030;38.710;2023-04-29T11:19:02;3.03;;;2.63;;
74543;SDS011;63016;55.030;38.710;2023-04-29T11:21:28;4.88;;;2.08;;
74543;SDS011;63016;55.030;38.710;2023-04-29T11:23:55;4.82;;;2.80;;
74543;SDS011;63016;55.030;38.710;2023-04-29T11:26:42;4.82;;;3.33;;
74543;SDS011;63016;55.030;38.710;2023-04-29T11:29:08;4.72;;;3.38;;
74543;SDS011;63016;55.030;38.710;2023-04-29T11:31:36;5.43;;;3.17;;
74543;SDS011;63016;55.030;38.710;2023-04-29T11:34:23;4.40;;;2.78;;
74543;SDS011;63016;55.030;38.710;2023-04-29T11:36:50;4.82;;;2.85;;
74543;SDS011;63016;55.030;38.710;2023-04-29T11:39:16;3.25;;;2.50;;
74543;SDS011;63016;55.030;38.710;2023-04-29T11:41:41;3.15;;;2.42;;
74543;SDS011;63016;55.030;38.710;2023-04-29T11:44:07;3.17;;;2.17;;
74543;SDS011;63016;55.030;38.710;2023-04-29T11:46:34;4.30;;;2.30;;
74543;SDS011;63016;55.030;38.710;2023-04-29T11:49:00;4.20;;;2.13;;
74543;SDS011;63016;55.030;38.710;2023-04-29T11:51:26;3.22;;;2.10;;
74543;SDS011;63016;55.030;38.710;2023-04-29T11:53:52;3.65;;;2.17;;
74543;SDS011;63016;55.030;38.710;2023-04-29T11:56:21;2.80;;;1.70;;
74543;SDS011;63016;55.030;38.710;2023-04-29T11:58:53;2.42;;;1.92;;
74543;SDS011;63016;55.030;38.710;2023-04-29T12:01:20;3.88;;;2.67;;
74543;SDS011;63016;55.030;38.710;2023-04-29T12:03:47;5.75;;;2.50;;
74543;SDS011;63016;55.030;38.710;2023-04-29T12:06:14;6.97;;;2.65;;
74543;SDS011;63016;55.030;38.710;2023-04-29T12:08:40;6.70;;;2.97;;
74543;SDS011;63016;55.030;38.710;2023-04-29T12:11:06;4.75;;;2.83;;
74543;SDS011;63016;55.030;38.710;2023-04-29T12:13:32;6.13;;;4.18;;
74543;SDS011;63016;55.030;38.710;2023-04-29T12:16:01;11.40;;;4.70;;
74543;SDS011;63016;55.030;38.710;2023-04-29T12:18:28;8.43;;;4.07;;
74543;SDS011;63016;55.030;38.710;2023-04-29T12:20:54;6.82;;;3.95;;
74543;SDS011;63016;55.030;38.710;2023-04-29T12:26:05;7.70;;;4.53;;
74543;SDS011;63016;55.030;38.710;2023-04-29T12:28:30;9.27;;;5.57;;
74543;SDS011;63016;55.030;38.710;2023-04-29T12:30:57;11.95;;;4.80;;
74543;SDS011;63016;55.030;38.710;2023-04-29T12:35:52;12.45;;;5.78;;
74543;SDS011;63016;55.030;38.710;2023-04-29T12:38:20;9.45;;;5.10;;
74543;SDS011;63016;55.030;38.710;2023-04-29T12:40:46;8.15;;;4.57;;
74543;SDS011;63016;55.030;38.710;2023-04-29T12:43:12;6.35;;;4.43;;
74543;SDS011;63016;55.030;38.710;2023-04-29T12:45:39;7.63;;;4.80;;
74543;SDS011;63016;55.030;38.710;2023-04-29T12:48:04;7.50;;;4.35;;
74543;SDS011;63016;55.030;38.710;2023-04-29T12:50:34;9.88;;;4.38;;
74543;SDS011;63016;55.030;38.710;2023-04-29T12:53:02;6.63;;;3.92;;
74543;SDS011;63016;55.030;38.710;2023-04-29T12:55:31;7.18;;;4.22;;
74543;SDS011;63016;55.030;38.710;2023-04-29T12:57:58;5.80;;;4.10;;
74543;SDS011;63016;55.030;38.710;2023-04-29T13:00:24;5.28;;;4.25;;
74543;SDS011;63016;55.030;38.710;2023-04-29T13:02:49;7.53;;;3.80;;
74543;SDS011;63016;55.030;38.710;2023-04-29T13:05:15;8.82;;;3.78;;
74543;SDS011;63016;55.030;38.710;2023-04-29T13:07:41;8.52;;;4.28;;
74543;SDS011;63016;55.030;38.710;2023-04-29T13:10:06;5.50;;;3.35;;
74543;SDS011;63016;55.030;38.710;2023-04-29T13:12:32;5.82;;;3.90;;
74543;SDS011;63016;55.030;38.710;2023-04-29T13:14:58;5.18;;;3.35;;
74543;SDS011;63016;55.030;38.710;2023-04-29T13:17:23;7.47;;;3.95;;
74543;SDS011;63016;55.030;38.710;2023-04-29T13:19:49;9.93;;;3.72;;
74543;SDS011;63016;55.030;38.710;2023-04-29T13:22:15;5.20;;;3.80;;
74543;SDS011;63016;55.030;38.710;2023-04-29T13:24:41;5.30;;;3.53;;
74543;SDS011;63016;55.030;38.710;2023-04-29T13:27:06;5.53;;;3.85;;
74543;SDS011;63016;55.030;38.710;2023-04-29T13:29:32;6.88;;;3.50;;
74543;SDS011;63016;55.030;38.710;2023-04-29T13:31:57;6.53;;;4.00;;
74543;SDS011;63016;55.030;38.710;2023-04-29T13:34:23;6.93;;;4.07;;
74543;SDS011;63016;55.030;38.710;2023-04-29T13:36:48;5.70;;;3.55;;
74543;SDS011;63016;55.030;38.710;2023-04-29T13:39:14;4.28;;;3.30;;
74543;SDS011;63016;55.030;38.710;2023-04-29T13:41:39;6.70;;;3.30;;
74543;SDS011;63016;55.030;38.710;2023-04-29T13:44:05;7.40;;;3.00;;
74543;SDS011;63016;55.030;38.710;2023-04-29T13:46:30;5.50;;;3.08;;
74543;SDS011;63016;55.030;38.710;2023-04-29T13:48:56;5.88;;;3.00;;
74543;SDS011;63016;55.030;38.710;2023-04-29T13:51:22;5.47;;;3.40;;
74543;SDS011;63016;55.030;38.710;2023-04-29T13:53:48;4.15;;;2.85;;
74543;SDS011;63016;55.030;38.710;2023-04-29T13:56:13;6.78;;;3.38;;
74543;SDS011;63016;55.030;38.710;2023-04-29T13:58:40;5.07;;;3.20;;
74543;SDS011;63016;55.030;38.710;2023-04-29T14:01:06;5.07;;;2.97;;
74543;SDS011;63016;55.030;38.710;2023-04-29T14:03:32;4.57;;;3.08;;
74543;SDS011;63016;55.030;38.710;2023-04-29T14:05:57;5.40;;;3.20;;
74543;SDS011;63016;55.030;38.710;2023-04-29T14:08:23;5.35;;;2.95;;
74543;SDS011;63016;55.030;38.710;2023-04-29T14:10:48;4.65;;;3.00;;
74543;SDS011;63016;55.030;38.710;2023-04-29T14:13:14;5.28;;;2.80;;
74543;SDS011;63016;55.030;38.710;2023-04-29T14:15:40;7.15;;;3.17;;
74543;SDS011;63016;55.030;38.710;2023-04-29T14:18:05;5.60;;;3.05;;
74543;SDS011;63016;55.030;38.710;2023-04-29T14:20:49;5.15;;;3.03;;
74543;SDS011;63016;55.030;38.710;2023-04-29T14:23:15;6.07;;;2.72;;
74543;SDS011;63016;55.030;38.710;2023-04-29T14:25:40;5.72;;;2.90;;
74543;SDS011;63016;55.030;38.710;2023-04-29T14:28:06;3.67;;;2.60;;
74543;SDS011;63016;55.030;38.710;2023-04-29T14:30:31;5.82;;;3.17;;
74543;SDS011;63016;55.030;38.710;2023-04-29T14:32:57;5.75;;;3.10;;
74543;SDS011;63016;55.030;38.710;2023-04-29T14:35:22;6.60;;;2.35;;
74543;SDS011;63016;55.030;38.710;2023-04-29T14:37:48;4.28;;;2.58;;
74543;SDS011;63016;55.030;38.710;2023-04-29T14:40:14;4.25;;;2.60;;
74543;SDS011;63016;55.030;38.710;2023-04-29T14:42:40;3.53;;;1.80;;
74543;SDS011;63016;55.030;38.710;2023-04-29T14:45:05;2.85;;;2.00;;
74543;SDS011;63016;55.030;38.710;2023-04-29T14:47:31;3.67;;;2.15;;
74543;SDS011;63016;55.030;38.710;2023-04-29T14:49:57;4.10;;;1.92;;
74543;SDS011;63016;55.030;38.710;2023-04-29T14:52:23;6.72;;;2.30;;
74543;SDS011;63016;55.030;38.710;2023-04-29T14:54:48;3.70;;;2.03;;
74543;SDS011;63016;55.030;38.710;2023-04-29T14:57:14;4.28;;;1.83;;
74543;SDS011;63016;55.030;38.710;2023-04-29T14:59:39;3.35;;;2.15;;
74543;SDS011;63016;55.030;38.710;2023-04-29T15:02:05;3.72;;;1.95;;
74543;SDS011;63016;55.030;38.710;2023-04-29T15:04:50;2.85;;;2.10;;
74543;SDS011;63016;55.030;38.710;2023-04-29T15:07:15;2.15;;;1.67;;
74543;SDS011;63016;55.030;38.710;2023-04-29T15:09:41;4.13;;;1.20;;
74543;SDS011;63016;55.030;38.710;2023-04-29T15:12:07;5.53;;;1.60;;
74543;SDS011;63016;55.030;38.710;2023-04-29T15:14:33;4.95;;;1.88;;
74543;SDS011;63016;55.030;38.710;2023-04-29T15:16:59;3.03;;;1.40;;
74543;SDS011;63016;55.030;38.710;2023-04-29T15:19:25;2.47;;;1.60;;